logo
Rechercher aéroport 
image banner adimage banner adimage banner ad
image banner ad

FAPM - Pietermaritzburg

Situé à Pietermaritzburg, South Africa

ICAO - FAPM, IATA - PZB

Données fournies par Airmate  

Information générale

Coordonnées: S29°38'48" E30°23'52"
Élévation : 2423 feet MSL.
Variation magnétique : -26° East
Évalué:
Voir évaluations:
[VIEW]
Voir autres Aéroports à Kwazulu-Natal

Données opérationnelles

Special qualification required
Heure actuelle UTC:
Heure actuelle locale:
Météo
TAF: TAF FAPM 281800Z 2819/2906 VRB02KT CAVOK TX15/2819Z TN08/2903Z
Voir NOTAMs / SUP AIP / TFR affectant cet aéroport [VIEW]
Fréquences de communication: [VIEW]

Pistes:

Identifiant RWYQFULongueur (ft)Largeur (ft)SurfaceLDA (ft)
34322°504893ASPH5043
16142°504893ASPH

Coordonnées de l'aéroport

Adresse: Pietermaritzburg South Africa

Autres services d'aviation

Clubs d'aviation (sans but lucratif)

Pietermaritzburg Aero Club

Pietermaritzburg Aero Club

Vue satellite de FAPM